createdAt,value
2019-02-28T00:02:28.448Z,10.60
2019-02-28T00:04:59.054Z,10.60
2019-02-28T00:07:30.210Z,10.50
2019-02-28T00:10:00.592Z,10.50
2019-02-28T00:12:30.984Z,10.50
2019-02-28T00:15:01.610Z,10.50
2019-02-28T00:17:31.947Z,10.40
2019-02-28T00:20:03.413Z,10.40
2019-02-28T00:22:55.408Z,10.40
2019-02-28T00:25:25.798Z,10.40
2019-02-28T00:27:56.359Z,10.40
2019-02-28T00:30:26.824Z,10.40
2019-02-28T00:32:59.305Z,10.40
2019-02-28T00:35:29.062Z,10.40
2019-02-28T00:37:59.390Z,10.40
2019-02-28T00:40:30.018Z,10.40
2019-02-28T00:43:01.120Z,10.30
2019-02-28T00:45:36.253Z,10.20
2019-02-28T00:48:02.916Z,10.30
2019-02-28T00:50:33.491Z,10.30
2019-02-28T00:53:06.366Z,10.30
2019-02-28T00:55:34.717Z,10.30
2019-02-28T00:58:05.285Z,10.30
2019-02-28T01:00:37.079Z,10.30
2019-02-28T01:03:06.344Z,10.20
2019-02-28T01:05:37.517Z,10.30
2019-02-28T01:08:08.084Z,10.20
2019-02-28T01:10:39.977Z,10.20
2019-02-28T01:13:31.532Z,10.20
2019-02-28T01:16:02.196Z,10.20
2019-02-28T01:18:34.737Z,10.20
2019-02-28T01:21:02.847Z,10.20
2019-02-28T01:23:33.425Z,10.10
2019-02-28T01:26:03.886Z,10.10
2019-02-28T01:28:34.275Z,10.00
2019-02-28T01:31:04.655Z,10.00
2019-02-28T01:33:35.236Z,10.00
2019-02-28T01:36:05.810Z,9.90
2019-02-28T01:38:36.494Z,10.00
2019-02-28T01:41:11.826Z,9.90
2019-02-28T01:43:41.474Z,10.00
2019-02-28T01:46:14.422Z,10.00
2019-02-28T01:48:45.010Z,9.90
2019-02-28T01:51:16.475Z,9.80
2019-02-28T01:53:47.423Z,9.80
2019-02-28T01:56:17.744Z,9.90
2019-02-28T01:58:50.370Z,9.80
2019-02-28T02:01:38.977Z,9.80
2019-02-28T02:04:12.542Z,9.80
2019-02-28T02:06:40.191Z,9.70
2019-02-28T02:09:11.779Z,9.70
2019-02-28T02:11:41.510Z,9.60
2019-02-28T02:14:12.082Z,9.60
2019-02-28T02:16:43.176Z,9.60
2019-02-28T02:19:17.559Z,9.60
2019-02-28T02:21:44.066Z,9.60
2019-02-28T02:24:15.682Z,9.60
2019-02-28T02:26:46.072Z,9.60
2019-02-28T02:29:17.424Z,9.60
2019-02-28T02:31:48.995Z,9.60
2019-02-28T02:34:19.303Z,9.60
2019-02-28T02:36:54.171Z,9.60
2019-02-28T02:39:22.177Z,9.70
2019-02-28T02:41:53.514Z,9.60
2019-02-28T02:44:30.698Z,9.50
2019-02-28T02:46:56.979Z,9.50
2019-02-28T02:49:26.293Z,9.50
2019-02-28T02:51:59.149Z,9.50
2019-02-28T02:54:29.490Z,9.50
2019-02-28T02:57:00.071Z,9.50
2019-02-28T02:59:37.211Z,9.50
2019-02-28T03:02:03.719Z,9.50
2019-02-28T03:04:34.177Z,9.50
2019-02-28T03:07:10.881Z,9.60
2019-02-28T03:09:43.523Z,9.50
2019-02-28T03:12:16.959Z,9.40
2019-02-28T03:17:31.062Z,9.40
2019-02-28T03:20:01.519Z,9.50
2019-02-28T03:22:32.061Z,9.50
2019-02-28T03:25:02.504Z,9.60
2019-02-28T03:27:32.951Z,9.60
2019-02-28T03:30:04.408Z,9.60
2019-02-28T03:32:42.157Z,9.60
2019-02-28T03:35:05.944Z,9.50
2019-02-28T03:37:36.404Z,9.50
2019-02-28T03:40:06.962Z,9.50
2019-02-28T03:42:37.293Z,9.50
2019-02-28T03:45:08.039Z,9.60
2019-02-28T03:47:39.104Z,9.50
2019-02-28T03:50:09.668Z,9.50
2019-02-28T03:52:44.262Z,9.50
2019-02-28T03:55:17.497Z,9.50
2019-02-28T03:57:48.625Z,9.50
2019-02-28T04:00:32.626Z,9.50
2019-02-28T04:02:58.693Z,9.60
2019-02-28T04:05:28.178Z,9.60
2019-02-28T04:07:56.794Z,9.60
2019-02-28T04:10:27.134Z,9.60
2019-02-28T04:12:57.507Z,9.60
2019-02-28T04:15:28.151Z,9.60
2019-02-28T04:17:58.479Z,9.70
2019-02-28T04:20:35.927Z,9.60
2019-02-28T04:23:00.358Z,9.70
2019-02-28T04:25:30.110Z,9.70
2019-02-28T04:28:00.833Z,9.70
2019-02-28T04:30:31.977Z,9.70
2019-02-28T04:33:03.325Z,9.70
2019-02-28T04:35:33.948Z,9.70
2019-02-28T04:38:05.046Z,9.70
2019-02-28T04:40:41.570Z,9.70
2019-02-28T04:43:12.716Z,9.80
2019-02-28T04:45:44.170Z,9.80
2019-02-28T04:48:15.317Z,9.80
2019-02-28T04:50:46.413Z,9.80
2019-02-28T04:53:20.194Z,9.80
2019-02-28T04:55:51.614Z,9.80
2019-02-28T04:58:25.320Z,9.90
2019-02-28T05:00:53.290Z,9.90
2019-02-28T05:03:27.972Z,9.80
2019-02-28T05:05:54.885Z,9.80
2019-02-28T05:08:25.283Z,9.90
2019-02-28T05:10:56.847Z,9.80
2019-02-28T05:13:26.806Z,9.80
2019-02-28T05:15:57.403Z,9.90
2019-02-28T05:18:28.258Z,9.80
2019-02-28T05:20:59.223Z,9.80
2019-02-28T05:23:35.831Z,9.80
2019-02-28T05:26:00.954Z,9.70
2019-02-28T05:28:31.389Z,9.70
2019-02-28T05:31:02.002Z,9.70
2019-02-28T05:33:32.576Z,9.70
2019-02-28T05:36:09.328Z,9.70
2019-02-28T05:38:39.909Z,9.70
2019-02-28T05:41:12.219Z,9.70
2019-02-28T05:43:40.620Z,9.70
2019-02-28T05:46:11.017Z,9.60
2019-02-28T05:48:42.109Z,9.60
2019-02-28T05:51:12.478Z,9.60
2019-02-28T05:53:42.807Z,9.60
2019-02-28T05:56:14.146Z,9.50
2019-02-28T05:58:44.699Z,9.50
2019-02-28T06:01:15.423Z,9.60
2019-02-28T06:03:46.768Z,9.50
2019-02-28T06:06:20.237Z,9.60
2019-02-28T06:08:48.704Z,9.50
2019-02-28T06:11:26.653Z,9.50
2019-02-28T06:13:57.742Z,9.50
2019-02-28T06:16:47.487Z,9.50
2019-02-28T06:19:17.804Z,9.40
2019-02-28T06:21:48.959Z,9.40
2019-02-28T06:24:19.594Z,9.40
2019-02-28T06:26:50.165Z,9.40
2019-02-28T06:29:21.653Z,9.40
2019-02-28T06:31:52.994Z,9.40
2019-02-28T06:34:23.370Z,9.30
2019-02-28T06:36:53.716Z,9.30
2019-02-28T06:39:26.844Z,9.40
2019-02-28T06:41:55.704Z,9.30
2019-02-28T06:44:27.012Z,9.30
2019-02-28T06:46:57.531Z,9.30
2019-02-28T06:49:28.627Z,9.20
2019-02-28T06:51:59.309Z,9.20
2019-02-28T06:54:30.467Z,9.20
2019-02-28T06:57:00.857Z,9.20
2019-02-28T06:59:31.612Z,9.20
2019-02-28T07:02:02.960Z,9.20
2019-02-28T07:04:34.311Z,9.20
2019-02-28T07:07:07.388Z,9.40
2019-02-28T07:09:37.253Z,9.40
2019-02-28T07:12:13.478Z,9.40
2019-02-28T07:14:49.337Z,9.30
2019-02-28T07:17:15.480Z,9.30
2019-02-28T07:19:46.177Z,9.30
2019-02-28T07:22:19.672Z,9.30
2019-02-28T07:24:48.651Z,9.30
2019-02-28T07:27:19.500Z,9.30
2019-02-28T07:29:51.879Z,9.30
2019-02-28T07:35:06.690Z,9.30
2019-02-28T07:37:37.269Z,9.90
2019-02-28T07:40:15.571Z,9.90
2019-02-28T07:42:40.844Z,9.50
2019-02-28T07:45:12.178Z,9.50
2019-02-28T07:47:41.535Z,9.50
2019-02-28T07:50:11.895Z,9.50
2019-02-28T07:52:42.188Z,9.40
2019-02-28T07:55:18.444Z,9.40
2019-02-28T07:57:56.612Z,9.40
2019-02-28T08:00:26.732Z,9.50
2019-02-28T08:02:57.884Z,9.50
2019-02-28T08:05:30.974Z,9.50
2019-02-28T08:07:58.596Z,9.50
2019-02-28T08:10:31.639Z,9.60
2019-02-28T08:13:04.181Z,9.60
2019-02-28T08:15:34.440Z,9.60
2019-02-28T08:18:05.833Z,9.60
2019-02-28T08:20:55.843Z,9.40
2019-02-28T08:23:29.731Z,9.30
2019-02-28T08:26:18.808Z,9.30
2019-02-28T08:28:48.229Z,9.30
2019-02-28T08:31:18.802Z,9.30
2019-02-28T08:34:08.874Z,9.30
2019-02-28T08:36:39.436Z,9.30
2019-02-28T08:39:11.973Z,9.30
2019-02-28T08:41:41.489Z,9.30
2019-02-28T08:44:14.095Z,9.30
2019-02-28T08:46:46.390Z,9.40
2019-02-28T08:49:16.187Z,9.40
2019-02-28T08:51:46.754Z,9.40
2019-02-28T08:54:17.324Z,9.60
2019-02-28T08:56:50.761Z,9.50
2019-02-28T08:59:22.661Z,9.60
2019-02-28T09:01:51.965Z,9.70
2019-02-28T09:04:22.675Z,9.70
2019-02-28T09:06:54.083Z,9.80
2019-02-28T09:09:24.650Z,9.80
2019-02-28T09:11:58.107Z,9.80
2019-02-28T09:14:26.418Z,9.80
2019-02-28T09:16:56.812Z,9.90
2019-02-28T09:19:47.578Z,9.90
2019-02-28T09:22:17.968Z,10.00
2019-02-28T09:24:48.544Z,10.00
2019-02-28T09:27:19.171Z,10.10
2019-02-28T09:29:54.461Z,10.10
2019-02-28T09:32:20.143Z,10.20
2019-02-28T09:34:50.596Z,10.30
2019-02-28T09:37:21.223Z,10.40
2019-02-28T09:40:13.962Z,10.50
2019-02-28T09:42:47.952Z,10.50
2019-02-28T09:45:24.615Z,10.50
2019-02-28T09:48:00.767Z,10.50
2019-02-28T09:50:27.603Z,10.70
2019-02-28T09:52:58.226Z,10.70
2019-02-28T09:55:34.579Z,10.70
2019-02-28T09:58:02.746Z,10.80
2019-02-28T10:00:33.324Z,10.80
2019-02-28T10:03:03.955Z,10.70
2019-02-28T10:05:34.289Z,10.70
2019-02-28T10:08:04.684Z,10.80
2019-02-28T10:10:35.006Z,11.00
2019-02-28T10:13:05.377Z,10.90
2019-02-28T10:15:38.701Z,11.00
2019-02-28T10:18:07.877Z,11.10
2019-02-28T10:20:38.317Z,11.10
2019-02-28T10:23:30.164Z,11.20
2019-02-28T10:26:00.726Z,11.20
2019-02-28T10:28:32.181Z,11.30
2019-02-28T10:31:03.389Z,11.30
2019-02-28T10:33:33.783Z,11.30
2019-02-28T10:36:04.360Z,11.20
2019-02-28T10:38:34.768Z,11.20
2019-02-28T10:41:27.682Z,11.30
2019-02-28T10:43:56.015Z,11.30
2019-02-28T10:46:25.684Z,11.30
2019-02-28T10:48:56.305Z,11.30
2019-02-28T10:51:26.634Z,11.20
2019-02-28T10:53:56.963Z,11.20
2019-02-28T10:56:31.680Z,11.20
2019-02-28T10:59:17.463Z,11.20
2019-02-28T11:01:48.099Z,11.20
2019-02-28T11:04:18.713Z,11.20
2019-02-28T11:06:49.799Z,11.40
2019-02-28T11:09:21.720Z,11.30
2019-02-28T11:11:54.607Z,11.30
2019-02-28T11:14:26.743Z,11.50
2019-02-28T11:16:59.387Z,11.40
2019-02-28T11:19:27.918Z,11.40
2019-02-28T11:22:01.488Z,11.40
2019-02-28T11:24:28.874Z,11.40
2019-02-28T11:26:59.513Z,11.40
2019-02-28T11:29:30.158Z,11.40
2019-02-28T11:32:02.274Z,11.50
2019-02-28T11:34:52.454Z,11.50
2019-02-28T11:37:23.038Z,11.50
2019-02-28T11:39:54.385Z,11.60
2019-02-28T11:42:28.016Z,11.70
2019-02-28T11:44:56.407Z,11.70
2019-02-28T11:47:26.577Z,11.80
2019-02-28T11:49:57.045Z,11.80
2019-02-28T11:55:13.448Z,11.90
2019-02-28T11:57:44.539Z,12.00
2019-02-28T12:00:22.912Z,12.00
2019-02-28T12:02:56.746Z,12.00
2019-02-28T12:05:24.880Z,12.00
2019-02-28T12:07:56.372Z,12.00
2019-02-28T12:10:27.884Z,12.00
2019-02-28T12:13:16.443Z,12.20
2019-02-28T12:15:47.286Z,12.20
2019-02-28T12:18:17.014Z,12.20
2019-02-28T12:20:47.340Z,12.20
2019-02-28T12:23:23.162Z,12.20
2019-02-28T12:25:48.286Z,12.20
2019-02-28T12:28:18.908Z,12.30
2019-02-28T12:30:50.682Z,12.30
2019-02-28T12:33:23.354Z,12.50
2019-02-28T12:35:52.364Z,12.50
2019-02-28T12:38:25.655Z,12.70
2019-02-28T12:40:53.431Z,12.80
2019-02-28T12:43:23.997Z,12.80
2019-02-28T12:45:56.860Z,12.70
2019-02-28T12:48:27.004Z,12.60
2019-02-28T12:50:55.594Z,12.50
2019-02-28T12:53:26.172Z,12.40
2019-02-28T12:55:56.832Z,12.40
2019-02-28T12:58:38.746Z,12.50
2019-02-28T13:01:08.184Z,12.60
2019-02-28T13:03:38.821Z,12.60
2019-02-28T13:06:09.386Z,12.70
2019-02-28T13:08:45.964Z,12.90
2019-02-28T13:11:19.627Z,13.20
2019-02-28T13:13:50.195Z,13.30
2019-02-28T13:16:22.860Z,13.20
2019-02-28T13:18:53.457Z,13.10
2019-02-28T13:21:24.017Z,13.00
2019-02-28T13:23:54.388Z,12.90
2019-02-28T13:26:24.953Z,12.80
2019-02-28T13:28:57.408Z,12.80
2019-02-28T13:31:27.049Z,12.80
2019-02-28T13:33:56.926Z,12.80
2019-02-28T13:36:27.246Z,12.90
2019-02-28T13:38:57.856Z,12.90
2019-02-28T13:41:35.748Z,13.00
2019-02-28T13:44:08.181Z,13.20
2019-02-28T13:46:38.520Z,13.30
2019-02-28T13:49:12.101Z,13.10
2019-02-28T13:51:42.646Z,13.10
2019-02-28T13:54:11.623Z,13.10
2019-02-28T13:56:42.022Z,13.10
2019-02-28T13:59:14.500Z,13.10
2019-02-28T14:01:44.836Z,13.00
2019-02-28T14:04:15.220Z,13.00
2019-02-28T14:06:45.838Z,12.90
2019-02-28T14:09:18.870Z,12.80
2019-02-28T14:11:47.535Z,12.70
2019-02-28T14:14:17.915Z,12.70
2019-02-28T14:16:48.347Z,12.70
2019-02-28T14:19:20.459Z,12.70
2019-02-28T14:21:49.865Z,12.70
2019-02-28T14:24:39.681Z,12.70
2019-02-28T14:27:10.063Z,12.70
2019-02-28T14:29:42.989Z,12.70
2019-02-28T14:32:11.663Z,12.80
2019-02-28T14:34:42.055Z,12.90
2019-02-28T14:37:12.757Z,13.00
2019-02-28T14:39:43.622Z,13.00
2019-02-28T14:42:13.960Z,13.10
2019-02-28T14:44:47.241Z,13.20
2019-02-28T14:47:17.625Z,13.20
2019-02-28T14:49:48.273Z,13.00
2019-02-28T14:52:19.621Z,13.10
2019-02-28T14:54:50.079Z,13.10
2019-02-28T14:57:20.459Z,13.20
2019-02-28T14:59:50.851Z,13.30
2019-02-28T15:02:27.989Z,13.30
2019-02-28T15:04:55.895Z,13.30
2019-02-28T15:07:26.492Z,13.20
2019-02-28T15:09:58.868Z,13.20
2019-02-28T15:12:27.499Z,13.10
2019-02-28T15:14:58.489Z,13.10
2019-02-28T15:17:29.046Z,13.00
2019-02-28T15:19:59.435Z,13.10
2019-02-28T15:22:29.760Z,13.20
2019-02-28T15:25:04.361Z,13.20
2019-02-28T15:27:39.008Z,13.20
2019-02-28T15:32:55.586Z,13.10
2019-02-28T15:35:26.281Z,13.10
2019-02-28T15:37:57.619Z,13.10
2019-02-28T15:40:31.185Z,13.10
2019-02-28T15:43:20.996Z,13.00
2019-02-28T15:45:51.737Z,12.90
2019-02-28T15:48:22.128Z,12.90
2019-02-28T15:50:54.740Z,12.90
2019-02-28T15:53:25.385Z,12.80
2019-02-28T15:55:56.603Z,12.80
2019-02-28T15:58:27.179Z,12.80
2019-02-28T16:00:57.827Z,12.80
2019-02-28T16:03:28.275Z,12.80
2019-02-28T16:05:58.605Z,12.80
2019-02-28T16:08:49.303Z,12.60
2019-02-28T16:11:20.000Z,12.50
2019-02-28T16:13:50.601Z,12.50
2019-02-28T16:16:21.564Z,12.40
2019-02-28T16:18:51.816Z,12.40
2019-02-28T16:21:24.425Z,12.40
2019-02-28T16:23:54.747Z,12.40
2019-02-28T16:26:25.449Z,12.40
2019-02-28T16:28:55.711Z,12.40
2019-02-28T16:31:26.332Z,12.40
2019-02-28T16:34:07.931Z,12.40
2019-02-28T16:36:30.103Z,12.30
2019-02-28T16:39:00.731Z,12.30
2019-02-28T16:41:33.687Z,12.00
2019-02-28T16:44:03.721Z,11.90
2019-02-28T16:46:34.046Z,11.90
2019-02-28T16:49:07.400Z,11.90
2019-02-28T16:51:35.332Z,11.70
2019-02-28T16:54:06.476Z,11.60
2019-02-28T16:56:38.693Z,11.60
2019-02-28T16:59:08.359Z,11.60
2019-02-28T17:01:39.805Z,11.50
2019-02-28T17:04:13.530Z,11.40
2019-02-28T17:06:45.300Z,11.40
2019-02-28T17:09:17.666Z,11.60
2019-02-28T17:11:59.911Z,11.60
2019-02-28T17:14:30.582Z,11.60
2019-02-28T17:17:01.800Z,11.50
2019-02-28T17:19:32.500Z,11.50
2019-02-28T17:22:03.091Z,11.40
2019-02-28T17:24:36.588Z,11.40
2019-02-28T17:27:10.620Z,11.40
2019-02-28T17:29:40.948Z,11.40
2019-02-28T17:32:11.918Z,11.30
2019-02-28T17:34:43.386Z,11.20
2019-02-28T17:37:13.955Z,11.10
2019-02-28T17:39:47.327Z,11.00
2019-02-28T17:42:35.524Z,10.90
2019-02-28T17:45:06.092Z,11.00
2019-02-28T17:48:12.688Z,10.90
2019-02-28T17:50:50.903Z,11.00
2019-02-28T17:53:42.034Z,10.90
2019-02-28T17:56:44.553Z,10.80
2019-02-28T17:59:29.641Z,10.80
2019-02-28T18:02:26.192Z,10.70
2019-02-28T18:05:30.360Z,10.70
2019-02-28T18:08:08.319Z,10.70
2019-02-28T18:11:14.991Z,10.80
2019-02-28T18:17:13.874Z,10.70
2019-02-28T18:20:14.983Z,10.80
2019-02-28T18:22:48.779Z,10.80
2019-02-28T18:25:48.633Z,10.80
2019-02-28T18:28:54.830Z,10.80
2019-02-28T18:31:23.289Z,10.90
2019-02-28T18:33:59.794Z,10.80
2019-02-28T18:36:30.356Z,10.80
2019-02-28T18:39:00.916Z,10.80
2019-02-28T18:41:34.606Z,10.80
2019-02-28T18:44:05.238Z,10.70
2019-02-28T18:46:35.803Z,10.70
2019-02-28T18:49:06.411Z,10.70
2019-02-28T18:51:38.001Z,10.70
2019-02-28T18:54:08.867Z,10.70
2019-02-28T18:56:40.320Z,10.60
2019-02-28T18:59:11.777Z,10.60
2019-02-28T19:01:43.118Z,10.60
2019-02-28T19:04:16.628Z,10.70
2019-02-28T19:06:47.715Z,10.70
2019-02-28T19:09:22.912Z,10.70
2019-02-28T19:11:53.478Z,10.70
2019-02-28T19:14:46.294Z,10.70
2019-02-28T19:17:16.904Z,10.70
2019-02-28T19:19:48.551Z,10.80
2019-02-28T19:22:18.868Z,10.80
2019-02-28T19:24:49.534Z,10.80
2019-02-28T19:27:19.914Z,10.70
2019-02-28T19:29:53.660Z,10.70
2019-02-28T19:32:25.120Z,10.70
2019-02-28T19:34:56.258Z,10.70
2019-02-28T19:37:26.892Z,10.70
2019-02-28T19:39:57.978Z,10.70
2019-02-28T19:42:48.484Z,10.60
2019-02-28T19:45:26.179Z,10.60
2019-02-28T19:48:19.772Z,10.60
2019-02-28T19:50:50.434Z,10.50
2019-02-28T19:53:21.779Z,10.60
2019-02-28T19:55:52.863Z,10.60
2019-02-28T19:58:25.301Z,10.60
2019-02-28T20:00:55.807Z,10.60
2019-02-28T20:03:26.193Z,10.60
2019-02-28T20:06:00.671Z,10.50
2019-02-28T20:08:32.028Z,10.50
2019-02-28T20:11:03.178Z,10.50
2019-02-28T20:13:33.569Z,10.50
2019-02-28T20:16:04.233Z,10.40
2019-02-28T20:18:35.512Z,10.50
2019-02-28T20:21:06.319Z,10.40
2019-02-28T20:23:37.397Z,10.40
2019-02-28T20:26:07.794Z,10.40
2019-02-28T20:28:39.241Z,10.40
2019-02-28T20:31:10.589Z,10.50
2019-02-28T20:33:43.379Z,10.40
2019-02-28T20:36:14.725Z,10.40
2019-02-28T20:38:48.114Z,10.40
2019-02-28T20:41:21.620Z,10.40
2019-02-28T20:43:53.064Z,10.40
2019-02-28T20:46:24.393Z,10.40
2019-02-28T20:48:55.045Z,10.40
2019-02-28T20:51:26.396Z,10.40
2019-02-28T20:53:57.507Z,10.40
2019-02-28T20:56:28.185Z,10.40
2019-02-28T20:58:58.759Z,10.30
2019-02-28T21:01:29.102Z,10.30
2019-02-28T21:03:59.662Z,10.30
2019-02-28T21:06:30.761Z,10.30
2019-02-28T21:09:01.443Z,10.30
2019-02-28T21:11:32.522Z,10.30
2019-02-28T21:14:10.196Z,10.30
2019-02-28T21:16:40.524Z,10.40
2019-02-28T21:19:11.138Z,10.30
2019-02-28T21:21:42.593Z,10.10
2019-02-28T21:24:14.043Z,10.30
2019-02-28T21:26:45.386Z,10.20
2019-02-28T21:29:16.857Z,10.20
2019-02-28T21:31:47.241Z,10.20
2019-02-28T21:34:18.511Z,10.30
2019-02-28T21:36:48.410Z,10.30
2019-02-28T21:39:18.967Z,10.20
2019-02-28T21:41:49.533Z,10.20
2019-02-28T21:44:19.926Z,10.20
2019-02-28T21:46:51.317Z,10.20
2019-02-28T21:49:21.923Z,10.10
2019-02-28T21:51:52.535Z,10.10
2019-02-28T21:54:23.633Z,10.20
2019-02-28T21:56:54.834Z,10.20
2019-02-28T21:59:25.459Z,10.20
2019-02-28T22:01:55.782Z,10.20
2019-02-28T22:04:28.637Z,10.10
2019-02-28T22:06:59.202Z,10.10
2019-02-28T22:09:29.778Z,10.10
2019-02-28T22:12:03.523Z,10.00
2019-02-28T22:14:34.618Z,10.10
2019-02-28T22:17:24.375Z,10.10
2019-02-28T22:19:55.084Z,10.10
2019-02-28T22:22:25.407Z,10.10
2019-02-28T22:24:57.509Z,10.10
2019-02-28T22:27:28.151Z,10.10
2019-02-28T22:32:42.775Z,10.00
2019-02-28T22:35:13.219Z,10.00
2019-02-28T22:37:44.294Z,10.00
2019-02-28T22:40:19.082Z,10.00
2019-02-28T22:42:50.404Z,9.90
2019-02-28T22:45:21.067Z,9.90
2019-02-28T22:47:52.641Z,10.00
2019-02-28T22:50:23.200Z,10.00
2019-02-28T22:53:00.853Z,9.90
2019-02-28T22:55:32.199Z,9.80
2019-02-28T22:58:03.547Z,9.70
2019-02-28T23:00:37.567Z,9.70
2019-02-28T23:03:08.755Z,9.80
2019-02-28T23:05:39.114Z,9.80
2019-02-28T23:08:09.504Z,9.70
2019-02-28T23:10:41.975Z,9.70
2019-02-28T23:13:19.605Z,9.60
2019-02-28T23:15:50.362Z,9.60
2019-02-28T23:18:20.998Z,9.60
2019-02-28T23:20:52.351Z,9.60
2019-02-28T23:23:23.495Z,9.60
2019-02-28T23:25:54.624Z,9.60
2019-02-28T23:28:27.904Z,9.60
2019-02-28T23:31:15.203Z,9.60
2019-02-28T23:33:49.738Z,9.60
2019-02-28T23:36:20.182Z,9.60
2019-02-28T23:38:50.680Z,9.60
2019-02-28T23:41:21.981Z,9.60
2019-02-28T23:43:53.352Z,9.70
2019-02-28T23:46:23.722Z,9.70
2019-02-28T23:48:54.275Z,9.60
2019-02-28T23:51:24.702Z,9.60
2019-02-28T23:53:55.067Z,9.70
2019-02-28T23:56:25.780Z,9.60
2019-02-28T23:58:57.187Z,9.60
